createdAt,value
2022-08-26T00:01:24.278Z,20.92
2022-08-26T00:03:56.472Z,20.91
2022-08-26T00:06:22.914Z,20.97
2022-08-26T00:08:49.304Z,20.97
2022-08-26T00:11:15.716Z,20.95
2022-08-26T00:13:53.833Z,20.94
2022-08-26T00:16:20.593Z,20.94
2022-08-26T00:18:46.993Z,20.91
2022-08-26T00:21:13.455Z,20.92
2022-08-26T00:23:40.505Z,20.91
2022-08-26T00:26:06.928Z,20.88
2022-08-26T00:28:35.745Z,20.91
2022-08-26T00:31:02.494Z,20.92
2022-08-26T00:33:29.971Z,20.92
2022-08-26T00:35:56.635Z,20.92
2022-08-26T00:38:23.815Z,20.89
2022-08-26T00:40:56.253Z,20.88
2022-08-26T00:43:24.002Z,20.87
2022-08-26T00:46:04.719Z,20.87
2022-08-26T00:48:33.846Z,20.84
2022-08-26T00:51:07.023Z,20.80
2022-08-26T00:53:39.291Z,20.77
2022-08-26T00:56:22.704Z,20.77
2022-08-26T00:58:50.209Z,20.78
2022-08-26T01:01:17.800Z,20.78
2022-08-26T01:03:46.206Z,20.74
2022-08-26T01:06:13.808Z,20.73
2022-08-26T01:08:40.781Z,20.73
2022-08-26T01:11:08.279Z,20.77
2022-08-26T01:13:36.788Z,20.75
2022-08-26T01:16:06.218Z,20.73
2022-08-26T01:18:33.288Z,20.72
2022-08-26T01:21:10.052Z,20.73
2022-08-26T01:23:41.165Z,20.71
2022-08-26T01:26:22.634Z,20.72
2022-08-26T01:28:53.782Z,20.70
2022-08-26T01:31:29.623Z,20.70
2022-08-26T01:34:12.234Z,20.70
2022-08-26T01:36:40.037Z,20.66
2022-08-26T01:39:07.776Z,20.68
2022-08-26T01:41:35.041Z,20.69
2022-08-26T01:44:05.000Z,20.65
2022-08-26T01:46:32.260Z,20.65
2022-08-26T01:49:06.757Z,20.62
2022-08-26T01:51:39.245Z,20.62
2022-08-26T01:54:11.971Z,20.63
2022-08-26T01:56:40.486Z,20.64
2022-08-26T01:59:10.726Z,20.63
2022-08-26T02:01:39.075Z,20.63
2022-08-26T02:04:40.938Z,20.64
2022-08-26T02:07:10.117Z,20.65
2022-08-26T02:09:41.378Z,20.62
2022-08-26T02:12:10.366Z,20.61
2022-08-26T02:14:43.800Z,20.61
2022-08-26T02:17:11.742Z,20.61
2022-08-26T02:19:41.886Z,20.65
2022-08-26T02:22:14.194Z,20.62
2022-08-26T02:24:55.789Z,20.59
2022-08-26T02:27:25.220Z,20.58
2022-08-26T02:30:06.904Z,20.56
2022-08-26T02:32:33.508Z,20.54
2022-08-26T02:35:01.374Z,20.50
2022-08-26T02:37:30.465Z,20.48
2022-08-26T02:39:57.054Z,20.49
2022-08-26T02:42:23.599Z,20.49
2022-08-26T02:44:51.715Z,20.46
2022-08-26T02:47:18.207Z,20.46
2022-08-26T02:49:47.485Z,20.46
2022-08-26T02:52:14.212Z,20.45
2022-08-26T02:54:40.638Z,20.45
2022-08-26T02:57:07.135Z,20.44
2022-08-26T02:59:35.886Z,20.42
2022-08-26T03:02:03.054Z,20.41
2022-08-26T03:04:30.375Z,20.38
2022-08-26T03:06:59.939Z,20.36
2022-08-26T03:09:27.134Z,20.35
2022-08-26T03:11:55.255Z,20.35
2022-08-26T03:14:23.859Z,20.30
2022-08-26T03:16:53.955Z,20.30
2022-08-26T03:19:22.572Z,20.31
2022-08-26T03:21:49.412Z,20.30
2022-08-26T03:24:17.452Z,20.30
2022-08-26T03:26:52.597Z,20.33
2022-08-26T03:29:38.846Z,20.33
2022-08-26T03:32:06.165Z,20.32
2022-08-26T03:34:33.247Z,20.31
2022-08-26T03:36:59.832Z,20.28
2022-08-26T03:39:26.471Z,20.30
2022-08-26T03:41:54.180Z,20.30
2022-08-26T03:44:21.404Z,20.33
2022-08-26T03:46:47.818Z,20.33
2022-08-26T03:49:15.168Z,20.34
2022-08-26T03:51:42.175Z,20.35
2022-08-26T03:54:09.295Z,20.37
2022-08-26T03:56:36.609Z,20.37
2022-08-26T03:59:04.343Z,20.35
2022-08-26T04:01:31.410Z,20.38
2022-08-26T04:04:00.373Z,20.36
2022-08-26T04:06:33.843Z,20.36
2022-08-26T04:09:05.354Z,20.36
2022-08-26T04:11:34.220Z,20.36
2022-08-26T04:14:04.886Z,20.36
2022-08-26T04:16:31.915Z,20.33
2022-08-26T04:18:58.507Z,20.35
2022-08-26T04:21:26.501Z,20.35
2022-08-26T04:23:54.244Z,20.35
2022-08-26T04:26:22.804Z,20.37
2022-08-26T04:28:51.389Z,20.37
2022-08-26T04:31:18.907Z,20.37
2022-08-26T04:33:49.578Z,20.33
2022-08-26T04:36:17.192Z,20.31
2022-08-26T04:38:45.710Z,20.30
2022-08-26T04:41:15.236Z,20.31
2022-08-26T04:43:44.645Z,20.31
2022-08-26T04:46:13.634Z,20.33
2022-08-26T04:48:40.851Z,20.35
2022-08-26T04:51:08.036Z,20.33
2022-08-26T04:53:34.768Z,20.31
2022-08-26T04:56:01.158Z,20.31
2022-08-26T04:58:27.684Z,20.31
2022-08-26T05:00:56.471Z,20.30
2022-08-26T05:03:24.391Z,20.30
2022-08-26T05:05:50.995Z,20.32
2022-08-26T05:08:19.000Z,20.32
2022-08-26T05:10:49.313Z,20.32
2022-08-26T05:13:17.966Z,20.33
2022-08-26T05:15:47.888Z,20.34
2022-08-26T05:18:21.264Z,20.29
2022-08-26T05:20:51.902Z,20.29
2022-08-26T05:23:22.607Z,20.27
2022-08-26T05:25:54.619Z,20.28
2022-08-26T05:28:22.500Z,20.29
2022-08-26T05:30:50.296Z,20.31
2022-08-26T05:33:18.424Z,20.28
2022-08-26T05:35:45.577Z,20.27
2022-08-26T05:38:16.067Z,20.27
2022-08-26T05:40:46.345Z,20.26
2022-08-26T05:43:13.882Z,20.28
2022-08-26T05:45:46.615Z,20.30
2022-08-26T05:48:15.455Z,20.25
2022-08-26T05:50:45.450Z,20.27
2022-08-26T05:53:13.582Z,20.31
2022-08-26T05:55:48.841Z,20.31
2022-08-26T05:58:17.424Z,20.31
2022-08-26T06:00:45.100Z,20.34
2022-08-26T06:03:11.697Z,20.34
2022-08-26T06:05:41.972Z,20.37
2022-08-26T06:08:16.487Z,20.36
2022-08-26T06:10:53.079Z,20.33
2022-08-26T06:13:22.192Z,20.36
2022-08-26T06:15:50.479Z,20.41
2022-08-26T06:18:19.870Z,20.41
2022-08-26T06:20:56.930Z,20.41
2022-08-26T06:23:45.229Z,20.40
2022-08-26T06:26:12.791Z,20.39
2022-08-26T06:28:39.160Z,20.40
2022-08-26T06:31:06.055Z,20.42
2022-08-26T06:33:32.831Z,20.44
2022-08-26T06:36:01.052Z,20.43
2022-08-26T06:38:27.632Z,20.42
2022-08-26T06:40:59.674Z,20.40
2022-08-26T06:43:28.010Z,20.42
2022-08-26T06:46:07.593Z,20.48
2022-08-26T06:48:36.651Z,20.51
2022-08-26T06:51:16.442Z,20.61
2022-08-26T06:53:47.714Z,20.67
2022-08-26T06:56:17.521Z,20.72
2022-08-26T06:58:43.905Z,20.78
2022-08-26T07:01:24.302Z,20.80
2022-08-26T07:03:54.248Z,20.75
2022-08-26T07:06:25.192Z,20.71
2022-08-26T07:08:54.075Z,20.70
2022-08-26T07:11:20.696Z,20.71
2022-08-26T07:13:47.832Z,20.71
2022-08-26T07:16:17.396Z,20.70
2022-08-26T07:18:45.336Z,20.66
2022-08-26T07:21:14.776Z,20.65
2022-08-26T07:23:41.442Z,20.64
2022-08-26T07:26:17.749Z,20.64
2022-08-26T07:28:46.252Z,20.68
2022-08-26T07:31:14.301Z,20.69
2022-08-26T07:33:42.112Z,20.70
2022-08-26T07:36:10.437Z,20.71
2022-08-26T07:38:38.983Z,20.70
2022-08-26T07:41:06.883Z,20.71
2022-08-26T07:43:36.329Z,20.68
2022-08-26T07:46:05.503Z,20.64
2022-08-26T07:48:32.832Z,20.69
2022-08-26T07:51:00.531Z,20.72
2022-08-26T07:53:27.168Z,20.75
2022-08-26T07:55:53.535Z,20.74
2022-08-26T07:58:20.112Z,20.78
2022-08-26T08:00:47.343Z,20.86
2022-08-26T08:03:15.035Z,20.88
2022-08-26T08:05:42.343Z,20.87
2022-08-26T08:08:27.010Z,20.83
2022-08-26T08:10:55.601Z,20.79
2022-08-26T08:13:22.968Z,20.77
2022-08-26T08:15:50.716Z,20.77
2022-08-26T08:18:17.837Z,20.80
2022-08-26T08:20:59.046Z,20.84
2022-08-26T08:23:25.825Z,20.87
2022-08-26T08:26:01.528Z,20.82
2022-08-26T08:28:28.392Z,20.82
2022-08-26T08:30:55.405Z,20.86
2022-08-26T08:33:22.534Z,20.88
2022-08-26T08:35:49.168Z,20.90
2022-08-26T08:38:16.512Z,20.94
2022-08-26T08:40:45.521Z,20.86
2022-08-26T08:43:14.995Z,20.87
2022-08-26T08:45:49.668Z,20.90
2022-08-26T08:48:27.799Z,20.89
2022-08-26T08:51:04.156Z,20.86
2022-08-26T08:53:35.679Z,20.88
2022-08-26T08:56:21.141Z,20.89
2022-08-26T08:59:04.249Z,20.90
2022-08-26T09:01:44.616Z,20.95
2022-08-26T09:04:17.337Z,21.00
2022-08-26T09:06:45.525Z,21.00
2022-08-26T09:09:24.006Z,20.99
2022-08-26T09:11:50.457Z,20.98
2022-08-26T09:14:16.841Z,20.94
2022-08-26T09:16:56.508Z,20.96
2022-08-26T09:19:49.220Z,21.01
2022-08-26T09:22:34.444Z,21.00
2022-08-26T09:25:01.473Z,21.02
2022-08-26T09:27:50.451Z,20.93
2022-08-26T09:30:33.586Z,21.04
2022-08-26T09:33:03.973Z,21.07
2022-08-26T09:35:40.123Z,21.07
2022-08-26T09:38:32.692Z,21.13
2022-08-26T09:41:05.297Z,21.13
2022-08-26T09:43:32.031Z,21.21
2022-08-26T09:46:13.207Z,21.23
2022-08-26T09:48:42.567Z,21.25
2022-08-26T09:51:23.961Z,21.32
2022-08-26T09:53:53.486Z,21.33
2022-08-26T09:56:38.285Z,21.32
2022-08-26T09:59:10.997Z,21.31
2022-08-26T10:04:12.159Z,21.22
2022-08-26T10:06:43.503Z,21.28
2022-08-26T10:09:13.743Z,21.34
2022-08-26T10:11:48.048Z,21.32
2022-08-26T10:14:37.066Z,21.39
2022-08-26T10:17:13.547Z,21.45
2022-08-26T10:19:57.180Z,21.43
2022-08-26T10:22:38.869Z,21.52
2022-08-26T10:25:09.416Z,21.50
2022-08-26T10:27:35.969Z,21.50
2022-08-26T10:30:10.369Z,21.53
2022-08-26T10:32:50.389Z,21.60
2022-08-26T10:35:19.239Z,21.69
2022-08-26T10:37:49.888Z,21.83
2022-08-26T10:40:23.519Z,21.82
2022-08-26T10:42:56.684Z,21.81
2022-08-26T10:45:27.110Z,21.81
2022-08-26T10:47:59.926Z,21.81
2022-08-26T10:50:41.722Z,21.80
2022-08-26T10:53:13.472Z,21.86
2022-08-26T10:55:54.035Z,22.07
2022-08-26T10:58:29.107Z,22.15
2022-08-26T11:01:24.162Z,22.15
2022-08-26T11:04:04.083Z,22.18
2022-08-26T11:06:31.280Z,22.15
2022-08-26T11:09:01.150Z,22.15
2022-08-26T11:11:39.520Z,22.22
2022-08-26T11:14:28.961Z,22.41
2022-08-26T11:16:57.704Z,22.59
2022-08-26T11:19:40.096Z,22.83
2022-08-26T11:22:36.301Z,22.96
2022-08-26T11:25:09.455Z,22.98
2022-08-26T11:27:38.373Z,23.07
2022-08-26T11:30:06.935Z,23.10
2022-08-26T11:32:34.041Z,23.13
2022-08-26T11:35:04.658Z,22.99
2022-08-26T11:37:41.216Z,22.79
2022-08-26T11:40:11.506Z,22.81
2022-08-26T11:42:46.292Z,22.91
2022-08-26T11:45:48.017Z,22.75
2022-08-26T11:48:38.464Z,22.76
2022-08-26T11:51:09.716Z,22.75
2022-08-26T11:53:41.195Z,22.84
2022-08-26T11:56:12.327Z,22.98
2022-08-26T11:58:46.768Z,22.98
2022-08-26T12:01:25.673Z,23.10
2022-08-26T12:03:52.834Z,23.25
2022-08-26T12:06:47.649Z,23.17
2022-08-26T12:09:22.245Z,23.22
2022-08-26T12:11:48.813Z,23.20
2022-08-26T12:14:22.617Z,23.21
2022-08-26T12:16:52.045Z,23.25
2022-08-26T12:19:32.630Z,23.16
2022-08-26T12:22:07.706Z,23.13
2022-08-26T12:24:34.142Z,23.22
2022-08-26T12:27:20.931Z,23.46
2022-08-26T12:30:12.443Z,23.64
2022-08-26T12:32:57.539Z,23.82
2022-08-26T12:35:25.373Z,23.78
2022-08-26T12:37:53.830Z,23.81
2022-08-26T12:40:35.387Z,23.66
2022-08-26T12:43:05.132Z,23.44
2022-08-26T12:45:37.131Z,23.23
2022-08-26T12:48:08.466Z,23.24
2022-08-26T12:50:38.856Z,23.21
2022-08-26T12:53:13.728Z,23.05
2022-08-26T12:55:44.000Z,22.92
2022-08-26T12:58:13.108Z,22.83
2022-08-26T13:00:41.930Z,22.72
2022-08-26T13:03:46.913Z,22.62
2022-08-26T13:06:22.333Z,22.58
2022-08-26T13:08:54.626Z,22.70
2022-08-26T13:11:40.532Z,22.99
2022-08-26T13:14:12.200Z,23.09
2022-08-26T13:16:49.206Z,22.95
2022-08-26T13:19:19.647Z,22.98
2022-08-26T13:21:49.396Z,22.94
2022-08-26T13:24:19.731Z,23.15
2022-08-26T13:26:48.916Z,23.21
2022-08-26T13:29:15.793Z,23.24
2022-08-26T13:31:46.830Z,23.30
2022-08-26T13:34:17.987Z,23.27
2022-08-26T13:36:45.176Z,23.34
2022-08-26T13:39:12.213Z,23.36
2022-08-26T13:41:38.760Z,23.36
2022-08-26T13:44:05.971Z,23.50
2022-08-26T13:46:32.576Z,23.46
2022-08-26T13:48:59.249Z,23.49
2022-08-26T13:51:26.939Z,23.63
2022-08-26T13:53:53.773Z,23.54
2022-08-26T13:56:20.448Z,23.46
2022-08-26T13:58:47.623Z,23.33
2022-08-26T14:01:17.061Z,23.02
2022-08-26T14:03:43.717Z,22.83
2022-08-26T14:06:10.491Z,22.76
2022-08-26T14:08:38.358Z,22.60
2022-08-26T14:11:04.965Z,22.55
2022-08-26T14:13:31.372Z,22.50
2022-08-26T14:15:59.567Z,22.57
2022-08-26T14:18:31.990Z,22.63
2022-08-26T14:20:59.152Z,22.73
2022-08-26T14:23:26.095Z,22.73
2022-08-26T14:25:52.784Z,22.62
2022-08-26T14:28:19.457Z,22.50
2022-08-26T14:30:54.044Z,22.45
2022-08-26T14:33:24.493Z,22.46
2022-08-26T14:35:50.857Z,22.46
2022-08-26T14:38:17.415Z,22.56
2022-08-26T14:40:47.324Z,22.64
2022-08-26T14:43:15.293Z,22.58
2022-08-26T14:45:45.488Z,22.52
2022-08-26T14:48:11.854Z,22.56
2022-08-26T14:50:38.289Z,22.59
2022-08-26T14:53:23.597Z,22.63
2022-08-26T14:55:50.515Z,22.57
2022-08-26T14:58:17.022Z,22.43
2022-08-26T15:00:43.553Z,22.39
2022-08-26T15:03:10.030Z,22.45
2022-08-26T15:05:36.632Z,22.48
2022-08-26T15:08:04.623Z,22.55
2022-08-26T15:10:31.088Z,22.57
2022-08-26T15:12:57.460Z,22.56
2022-08-26T15:15:23.920Z,22.66
2022-08-26T15:17:50.276Z,22.93
2022-08-26T15:20:16.697Z,23.27
2022-08-26T15:22:43.142Z,23.21
2022-08-26T15:25:10.326Z,23.14
2022-08-26T15:27:37.098Z,23.09
2022-08-26T15:30:10.509Z,23.05
2022-08-26T15:32:36.865Z,23.02
2022-08-26T15:35:08.683Z,23.04
2022-08-26T15:37:35.832Z,23.10
2022-08-26T15:40:02.647Z,23.13
2022-08-26T15:42:29.184Z,23.06
2022-08-26T15:44:55.663Z,22.97
2022-08-26T15:47:23.638Z,22.90
2022-08-26T15:49:50.032Z,22.91
2022-08-26T15:52:16.872Z,22.91
2022-08-26T15:54:43.300Z,22.89
2022-08-26T15:57:12.316Z,22.76
2022-08-26T15:59:39.478Z,22.70
2022-08-26T16:02:06.046Z,22.62
2022-08-26T16:04:32.473Z,22.50
2022-08-26T16:06:59.114Z,22.43
2022-08-26T16:09:27.077Z,22.40
2022-08-26T16:11:54.965Z,22.35
2022-08-26T16:14:22.459Z,22.32
2022-08-26T16:16:49.133Z,22.26
2022-08-26T16:19:15.748Z,22.22
2022-08-26T16:21:42.943Z,22.21
2022-08-26T16:24:09.676Z,22.25
2022-08-26T16:26:37.946Z,22.17
2022-08-26T16:29:08.627Z,22.17
2022-08-26T16:31:35.837Z,22.18
2022-08-26T16:34:02.384Z,22.15
2022-08-26T16:36:28.782Z,22.09
2022-08-26T16:38:56.311Z,21.94
2022-08-26T16:41:24.464Z,21.83
2022-08-26T16:43:54.279Z,21.81
2022-08-26T16:46:23.653Z,21.77
2022-08-26T16:48:50.201Z,21.70
2022-08-26T16:51:19.070Z,21.59
2022-08-26T16:53:45.902Z,21.48
2022-08-26T16:56:17.740Z,21.44
2022-08-26T16:58:44.620Z,21.33
2022-08-26T17:01:11.331Z,21.28
2022-08-26T17:03:37.756Z,21.22
2022-08-26T17:06:04.247Z,21.20
2022-08-26T17:08:30.631Z,21.21
2022-08-26T17:11:00.287Z,21.21
2022-08-26T17:13:35.403Z,21.15
2022-08-26T17:16:04.624Z,21.17
2022-08-26T17:18:31.328Z,21.19
2022-08-26T17:21:12.814Z,21.20
2022-08-26T17:23:41.375Z,21.14
2022-08-26T17:26:08.223Z,21.11
2022-08-26T17:28:34.793Z,21.09
2022-08-26T17:31:02.127Z,21.05
2022-08-26T17:33:29.143Z,21.03
2022-08-26T17:35:55.681Z,21.00
2022-08-26T17:38:22.613Z,20.97
2022-08-26T17:40:49.552Z,20.94
2022-08-26T17:43:16.651Z,20.89
2022-08-26T17:45:43.424Z,20.83
2022-08-26T17:48:10.988Z,20.80
2022-08-26T17:50:42.316Z,20.82
2022-08-26T17:53:09.166Z,20.84
2022-08-26T17:55:45.265Z,20.80
2022-08-26T17:58:11.761Z,20.74
2022-08-26T18:00:47.291Z,20.67
2022-08-26T18:03:13.935Z,20.59
2022-08-26T18:05:41.015Z,20.59
2022-08-26T18:08:07.365Z,20.54
2022-08-26T18:10:33.873Z,20.49
2022-08-26T18:13:01.206Z,20.48
2022-08-26T18:15:27.696Z,20.44
2022-08-26T18:17:54.100Z,20.33
2022-08-26T18:20:20.597Z,20.28
2022-08-26T18:22:48.152Z,20.22
2022-08-26T18:25:16.476Z,20.18
2022-08-26T18:27:43.699Z,20.12
2022-08-26T18:30:16.620Z,20.13
2022-08-26T18:32:43.415Z,20.13
2022-08-26T18:35:10.438Z,20.10
2022-08-26T18:37:37.460Z,20.10
2022-08-26T18:40:06.642Z,20.08
2022-08-26T18:42:33.397Z,20.01
2022-08-26T18:44:59.763Z,19.95
2022-08-26T18:47:26.118Z,19.93
2022-08-26T18:49:52.655Z,19.91
2022-08-26T18:52:19.147Z,19.85
2022-08-26T18:54:46.409Z,19.83
2022-08-26T18:57:12.915Z,19.83
2022-08-26T18:59:40.768Z,19.79
2022-08-26T19:02:08.370Z,19.75
2022-08-26T19:04:35.256Z,19.73
2022-08-26T19:07:01.703Z,19.68
2022-08-26T19:09:28.356Z,19.69
2022-08-26T19:14:27.846Z,19.67
2022-08-26T19:16:54.205Z,19.65
2022-08-26T19:19:24.000Z,19.59
2022-08-26T19:21:51.566Z,19.57
2022-08-26T19:24:19.056Z,19.59
2022-08-26T19:26:51.401Z,19.54
2022-08-26T19:29:26.017Z,19.52
2022-08-26T19:31:52.374Z,19.49
2022-08-26T19:34:20.907Z,19.41
2022-08-26T19:36:47.648Z,19.37
2022-08-26T19:39:14.133Z,19.33
2022-08-26T19:41:40.755Z,19.28
2022-08-26T19:44:13.146Z,19.23
2022-08-26T19:46:40.517Z,19.18
2022-08-26T19:49:07.120Z,19.16
2022-08-26T19:51:34.949Z,19.06
2022-08-26T19:54:01.958Z,19.02
2022-08-26T19:56:29.001Z,18.99
2022-08-26T19:58:56.529Z,18.91
2022-08-26T20:01:23.085Z,18.84
2022-08-26T20:03:49.769Z,18.81
2022-08-26T20:06:17.465Z,18.76
2022-08-26T20:08:44.583Z,18.72
2022-08-26T20:11:14.591Z,18.70
2022-08-26T20:13:41.311Z,18.73
2022-08-26T20:16:08.080Z,18.72
2022-08-26T20:18:52.996Z,18.73
2022-08-26T20:21:29.218Z,18.71
2022-08-26T20:24:09.113Z,18.65
2022-08-26T20:26:37.742Z,18.62
2022-08-26T20:29:06.011Z,18.58
2022-08-26T20:31:32.944Z,18.63
2022-08-26T20:33:59.353Z,18.65
2022-08-26T20:36:27.252Z,18.66
2022-08-26T20:38:55.044Z,18.64
2022-08-26T20:41:22.795Z,18.64
2022-08-26T20:43:49.213Z,18.64
2022-08-26T20:46:18.169Z,18.64
2022-08-26T20:48:46.686Z,18.66
2022-08-26T20:51:13.429Z,18.66
2022-08-26T20:53:40.168Z,18.69
2022-08-26T20:56:09.218Z,18.68
2022-08-26T20:58:36.996Z,18.68
2022-08-26T21:01:07.836Z,18.71
2022-08-26T21:03:35.564Z,18.73
2022-08-26T21:06:03.470Z,18.72
2022-08-26T21:08:29.877Z,18.68
2022-08-26T21:10:59.913Z,18.64
2022-08-26T21:13:26.286Z,18.60
2022-08-26T21:15:56.054Z,18.50
2022-08-26T21:18:22.587Z,18.46
2022-08-26T21:20:48.994Z,18.48
2022-08-26T21:23:15.395Z,18.46
2022-08-26T21:25:42.015Z,18.48
2022-08-26T21:28:08.469Z,18.46
2022-08-26T21:30:38.527Z,18.45
2022-08-26T21:33:04.922Z,18.44
2022-08-26T21:35:31.307Z,18.46
2022-08-26T21:37:57.717Z,18.43
2022-08-26T21:40:24.542Z,18.43
2022-08-26T21:42:50.922Z,18.41
2022-08-26T21:45:17.353Z,18.41
2022-08-26T21:47:43.988Z,18.40
2022-08-26T21:50:10.395Z,18.42
2022-08-26T21:52:37.943Z,18.39
2022-08-26T21:55:09.032Z,18.40
2022-08-26T21:57:37.944Z,18.37
2022-08-26T22:00:08.614Z,18.36
2022-08-26T22:02:35.057Z,18.36
2022-08-26T22:05:01.441Z,18.36
2022-08-26T22:07:27.815Z,18.33
2022-08-26T22:09:54.211Z,18.33
2022-08-26T22:12:20.633Z,18.27
2022-08-26T22:14:48.078Z,18.27
2022-08-26T22:17:14.861Z,18.27
2022-08-26T22:19:46.055Z,18.26
2022-08-26T22:22:14.261Z,18.25
2022-08-26T22:24:40.813Z,18.25
2022-08-26T22:27:07.210Z,18.26
2022-08-26T22:29:33.681Z,18.23
2022-08-26T22:32:00.939Z,18.21
2022-08-26T22:34:28.048Z,18.23
2022-08-26T22:36:54.801Z,18.18
2022-08-26T22:39:23.772Z,18.16
2022-08-26T22:41:50.877Z,18.16
2022-08-26T22:44:18.469Z,18.17
2022-08-26T22:46:45.674Z,18.16
2022-08-26T22:49:16.244Z,18.20
2022-08-26T22:51:44.344Z,18.17
2022-08-26T22:54:11.131Z,18.17
2022-08-26T22:56:38.015Z,18.19
2022-08-26T22:59:07.733Z,18.22
2022-08-26T23:01:39.409Z,18.22
2022-08-26T23:04:07.056Z,18.17
2022-08-26T23:06:38.056Z,18.17
2022-08-26T23:09:06.397Z,18.15
2022-08-26T23:11:33.366Z,18.16
2022-08-26T23:14:01.375Z,18.12
2022-08-26T23:16:39.130Z,18.13
2022-08-26T23:19:05.779Z,18.13
2022-08-26T23:21:32.173Z,18.14
2022-08-26T23:23:58.599Z,18.13
2022-08-26T23:26:24.962Z,18.17
2022-08-26T23:28:51.339Z,18.16
2022-08-26T23:31:17.740Z,18.14
2022-08-26T23:34:02.844Z,18.14
2022-08-26T23:36:29.728Z,18.14
2022-08-26T23:38:57.193Z,18.12
2022-08-26T23:41:24.333Z,18.12
2022-08-26T23:43:51.536Z,18.03
2022-08-26T23:46:18.427Z,18.04
2022-08-26T23:48:44.891Z,18.01
2022-08-26T23:51:30.021Z,17.99
2022-08-26T23:53:57.794Z,17.95
2022-08-26T23:56:24.554Z,17.90
2022-08-26T23:58:53.251Z,17.90
